Meteo Giornale » Osservazioni meteo Stati Uniti (USA) » San Diego-Gillespie
ore: 10:47 - Osservazioni Meteo San Diego-Gillespie
Lat. 32° 50' N Lon. 116° 58' W Alt. 117 metri s.l.m.
27 °C
Sereno
Temp. 24 Ore
17 °C
30 °C
Nord
0 Km/h
Dew point 16 °C
Umidità 50 %
Visibilità 10 Km
Il sole sorge alle ore 06:22
Il sole tramonta alle ore 19:12
| Data e Ora | Cielo e Fenomeni | T °C | DP °C | Um. % | Pres. hPa | Vis. km | Vento km/h | |
|---|---|---|---|---|---|---|---|---|
| Oggi h: 10:47 | Sereno | 27 | 16 | 50 | 1016 | 10 | N 0 | |
| Oggi h: 09:47 | Sereno | 24 | 16 | 60 | 1016 | 10 | N 0 | |
| Oggi h: 08:47 | Poco Nuvoloso | 21 | 17 | 77 | 1015 | 10 | N 0 | |
| Oggi h: 07:47 | Poco Nuvoloso | 19 | 16 | 82 | 1015 | 10 | N 0 | |
| Oggi h: 06:47 | Foschia | 17 | 16 | 93 | 1014 | 10 | N 0 | |
| Oggi h: 06:35 | Foschia | 18 | 16 | 88 | 1014 | 10 | O/NO 7.4 | |
| Oggi h: 06:15 | Sereno | 18 | 16 | 88 | 1014 | 10 | N 0 | |
| Oggi h: 05:55 | Sereno | 18 | 16 | 88 | 1014 | 10 | N 0 | |
| Oggi h: 05:35 | Sereno | 18 | 17 | 93 | 1014 | 10 | N 0 | |
| Oggi h: 05:15 | Sereno | 18 | 16 | 88 | 1014 | 10 | N 0 | |
| Oggi h: 04:55 | Sereno | 18 | 16 | 88 | 1014 | 10 | N 0 | |
| Oggi h: 04:35 | Sereno | 18 | 16 | 88 | 1014 | 10 | O/NO 9.3 | |
| Oggi h: 04:15 | Sereno | 18 | 16 | 88 | 1014 | 10 | O/NO 7.4 | |
| Oggi h: 03:55 | Sereno | 18 | 16 | 88 | 1014 | 10 | N 5.5 | |
| Oggi h: 03:35 | Sereno | 18 | 16 | 88 | 1014 | 10 | O 9.3 | |
| Oggi h: 03:15 | Sereno | 18 | 16 | 88 | 1014 | 10 | O 7.4 | |
| Oggi h: 02:55 | Sereno | 19 | 16 | 82 | 1014 | 10 | N 5.5 | |
| Oggi h: 02:35 | Sereno | 19 | 16 | 82 | 1014 | 10 | N 5.5 | |
| Oggi h: 02:15 | Sereno | 19 | 16 | 82 | 1014 | 10 | N 0 | |
| Oggi h: 01:55 | Sereno | 19 | 16 | 82 | 1014 | 10 | N 0 | |
| Oggi h: 01:35 | Sereno | 19 | 16 | 82 | 1014 | 10 | O/NO 7.4 | |
| Oggi h: 01:15 | Sereno | 19 | 16 | 82 | 1014 | 10 | N 5.5 | |
| Oggi h: 00:55 | Sereno | 20 | 16 | 77 | 1014 | 10 | N 0 | |
| Oggi h: 00:35 | Sereno | 20 | 17 | 82 | 1014 | 10 | N 5.5 | |
| Oggi h: 00:15 | Sereno | 20 | 17 | 82 | 1014 | 10 | N 5.5 | |
| Ieri h: 23:55 | Sereno | 20 | 17 | 82 | 1014 | 10 | O/NO 7.4 | |
| Ieri h: 23:35 | Sereno | 20 | 17 | 82 | 1014 | 10 | N 0 | |
| Ieri h: 23:15 | Sereno | 20 | 17 | 82 | 1014 | 10 | O/NO 7.4 | |
| Ieri h: 22:55 | Sereno | 20 | 17 | 82 | 1014 | 10 | O/NO 7.4 | |
| Ieri h: 22:35 | Sereno | 21 | 17 | 77 | 1014 | 10 | O/NO 9.3 | |
| Ieri h: 22:15 | Sereno | 21 | 17 | 77 | 1014 | 10 | O 11.1 | |
| Ieri h: 21:55 | Sereno | 21 | 17 | 77 | 1014 | 10 | O 9.3 | |
| Ieri h: 21:35 | Sereno | 21 | 17 | 77 | 1014 | 10 | O 9.3 | |
| Ieri h: 21:15 | Sereno | 22 | 17 | 73 | 1014 | 10 | O/NO 7.4 | |
| Ieri h: 20:55 | Sereno | 22 | 17 | 73 | 1014 | 10 | O 13 | |
| Ieri h: 20:47 | Sereno | 22 | 17 | 73 | 1014 | 10 | O 11.1 | |
| Ieri h: 19:47 | Sereno | 23 | 17 | 68 | 1013 | 10 | O/NO 13 | |
| Ieri h: 18:47 | Sereno | 26 | 15 | 50 | 1012 | 10 | O 14.8 | |
| Ieri h: 17:47 | Sereno | 28 | 16 | 48 | 1012 | 10 | O/NO 16.7 | |
| Ieri h: 16:47 | Sereno | 29 | 15 | 42 | 1012 | 10 | SO 14.8 | |
| Ieri h: 15:47 | Sereno | 29 | 15 | 42 | 1012 | 10 | O/SO 11.1 | |
| Ieri h: 14:47 | Sereno | 29 | 13 | 37 | 1013 | 10 | SO 14.8 | |
| Ieri h: 13:47 | Sereno | 30 | 13 | 35 | 1013 | 10 | SO 16.7 | |
| Ieri h: 12:47 | Sereno | 30 | 14 | 37 | 1014 | 10 | SO 14.8 | |
| Ieri h: 11:47 | Sereno | 29 | 15 | 42 | 1014 | 10 | SO 11.1 | |



